Time;durP1;ratioP1;P1;durP2;ratioP2;P2;SDS_P1;SDS_P2;PMS_P1;PMS_P2;Temp;Humidity;BMP_temperature;BMP_pressure;BME280_temperature;BME280_humidity;BME280_pressure;Samples;Min_cycle;Max_cycle;Signal;HPM_P1;HPM_P2
2022/09/03 00:00:03;;;;;;;12.25;6.22;;;;;;;7.14;100.00;98318.29;1747332;80;21581;-82
2022/09/03 00:02:46;;;;;;;12.28;6.53;;;;;;;7.11;100.00;98314.76;1750078;81;20994;-82
2022/09/03 00:05:33;;;;;;;12.05;6.28;;;;;;;7.04;100.00;98308.73;1741993;80;21016;-90
2022/09/03 00:08:22;;;;;;;10.03;6.65;;;;;;;7.04;100.00;98312.24;1741370;80;20967;-89
2022/09/03 00:10:55;;;;;;;13.25;6.62;;;;;;;7.00;100.00;98312.44;1761027;80;21162;-82
2022/09/03 00:13:45;;;;;;;13.55;6.70;;;;;;;6.94;100.00;98313.99;1763916;81;20980;-83
2022/09/03 00:16:15;;;;;;;9.88;5.97;;;;;;;6.94;100.00;98315.34;1759984;80;21475;-89
2022/09/03 00:18:44;;;;;;;10.60;6.00;;;;;;;6.94;100.00;98312.64;1763666;81;21389;-82
2022/09/03 00:21:19;;;;;;;9.60;5.92;;;;;;;6.90;100.00;98316.35;1737440;80;21436;-82
2022/09/03 00:23:44;;;;;;;11.68;7.10;;;;;;;6.88;100.00;98309.06;1735693;82;22098;-82
2022/09/03 00:26:21;;;;;;;10.98;5.87;;;;;;;6.87;100.00;98303.92;1771295;80;22681;-83
2022/09/03 00:28:52;;;;;;;11.25;6.30;;;;;;;6.81;100.00;98312.45;1744957;81;21031;-87
2022/09/03 00:31:36;;;;;;;10.88;6.12;;;;;;;6.75;100.00;98304.86;1754413;80;21363;-89
2022/09/03 00:34:31;;;;;;;11.20;5.50;;;;;;;6.72;100.00;98305.86;1727675;81;21496;-82
2022/09/03 00:36:57;;;;;;;9.70;6.12;;;;;;;6.68;100.00;98304.74;1761565;80;21097;-82
2022/09/03 00:39:26;;;;;;;11.03;5.83;;;;;;;6.63;100.00;98300.62;1764363;80;21005;-82
2022/09/03 00:42:28;;;;;;;18.85;6.25;;;;;;;6.58;100.00;98298.68;1764294;80;21069;-89
2022/09/03 00:45:33;;;;;;;14.58;5.97;;;;;;;6.57;100.00;98294.86;1745093;80;20993;-82
2022/09/03 00:48:25;;;;;;;9.78;5.10;;;;;;;6.59;100.00;98294.11;1731037;82;21064;-89
2022/09/03 00:51:09;;;;;;;12.58;6.28;;;;;;;6.61;100.00;98300.87;1756360;80;21140;-89
2022/09/03 00:53:52;;;;;;;10.85;5.25;;;;;;;6.63;100.00;98295.23;1732875;80;21064;-88
2022/09/03 00:56:32;;;;;;;10.98;5.30;;;;;;;6.66;100.00;98302.27;1769475;80;20988;-82
2022/09/03 00:59:16;;;;;;;12.15;6.70;;;;;;;6.67;100.00;98300.42;1759267;80;21084;-83
2022/09/03 01:02:08;;;;;;;12.53;6.05;;;;;;;6.67;100.00;98302.58;1757379;80;22001;-90
2022/09/03 01:04:54;;;;;;;9.35;5.28;;;;;;;6.69;100.00;98299.11;1721911;81;21169;-82
2022/09/03 01:07:49;;;;;;;8.45;5.30;;;;;;;6.72;100.00;98302.64;1737356;82;21017;-82
2022/09/03 01:10:38;;;;;;;10.43;5.30;;;;;;;6.75;100.00;98301.31;1708464;80;21518;-90
2022/09/03 01:13:08;;;;;;;17.35;5.28;;;;;;;6.75;100.00;98295.93;1726720;80;21108;-88
2022/09/03 01:15:46;;;;;;;11.22;5.03;;;;;;;6.75;100.00;98293.23;1745378;80;21009;-90
2022/09/03 01:18:30;;;;;;;10.38;5.95;;;;;;;6.75;100.00;98291.89;1767134;79;21021;-88
2022/09/03 01:21:37;;;;;;;13.10;5.92;;;;;;;6.72;100.00;98301.83;1707966;80;21452;-82
2022/09/03 01:24:30;;;;;;;10.03;5.50;;;;;;;6.68;100.00;98293.97;1735155;80;20986;-89
2022/09/03 01:27:18;;;;;;;12.23;5.65;;;;;;;6.66;100.00;98295.54;1755466;80;21001;-89
2022/09/03 01:30:05;;;;;;;11.40;4.92;;;;;;;6.64;100.00;98293.63;1755741;80;21083;-88
2022/09/03 01:32:42;;;;;;;11.45;5.85;;;;;;;6.58;100.00;98287.06;1741490;80;21430;-82
2022/09/03 01:35:33;;;;;;;16.25;7.08;;;;;;;6.54;100.00;98286.76;1752182;80;21014;-87
2022/09/03 01:38:32;;;;;;;10.48;5.08;;;;;;;6.50;100.00;98286.45;1761947;79;21506;-88
2022/09/03 01:44:19;;;;;;;9.95;5.97;;;;;;;6.43;100.00;98284.98;1767996;79;20515;-82
2022/09/03 01:46:45;;;;;;;8.10;4.15;;;;;;;6.43;100.00;98293.87;1762658;79;21290;-87
2022/09/03 01:49:21;;;;;;;8.48;4.85;;;;;;;6.43;100.00;98300.61;1691793;83;20997;-82
2022/09/03 01:51:52;;;;;;;11.90;5.50;;;;;;;6.44;100.00;98293.34;1762340;80;21519;-89
2022/09/03 01:54:39;;;;;;;12.13;5.47;;;;;;;6.43;100.00;98295.75;1763805;80;21016;-89
2022/09/03 01:57:33;;;;;;;11.97;5.22;;;;;;;6.39;100.00;98299.45;1761285;80;21004;-89
2022/09/03 02:00:12;;;;;;;8.68;5.08;;;;;;;6.30;100.00;98300.92;1763218;80;21091;-88
2022/09/03 02:02:40;;;;;;;;;;;;;;;6.26;100.00;98297.64;1757754;81;20985;-88
2022/09/03 02:05:23;;;;;;;8.78;5.42;;;;;;;6.16;100.00;98309.06;1762636;80;20186;-89
2022/09/03 02:07:59;;;;;;;8.38;4.85;;;;;;;6.10;100.00;98307.33;1761850;80;21068;-89
2022/09/03 02:10:35;;;;;;;10.58;4.85;;;;;;;6.01;100.00;98308.27;1759250;80;20989;-89
2022/09/03 02:13:22;;;;;;;10.98;6.25;;;;;;;6.04;100.00;98306.42;1694688;82;21449;-86
2022/09/03 02:15:48;;;;;;;10.85;4.95;;;;;;;6.01;100.00;98308.27;1724150;80;21080;-82
2022/09/03 02:18:24;;;;;;;10.23;6.53;;;;;;;6.03;100.00;98310.17;1722568;81;21456;-89
2022/09/03 02:20:52;;;;;;;12.60;5.70;;;;;;;6.06;100.00;98308.86;1741376;80;21403;-81
2022/09/03 02:23:18;;;;;;;10.40;5.53;;;;;;;6.13;100.00;98308.99;1732177;80;20993;-89
2022/09/03 02:25:47;;;;;;;12.53;5.53;;;;;;;6.21;100.00;98314.50;1730336;80;21062;-88
2022/09/03 02:28:13;;;;;;;10.08;6.33;;;;;;;6.29;100.00;98307.91;1722520;81;21017;-89
2022/09/03 02:30:41;;;;;;;8.45;5.83;;;;;;;6.31;100.00;98308.47;1746540;81;21539;-89
2022/09/03 02:33:07;;;;;;;10.32;5.58;;;;;;;6.35;100.00;98313.66;1731901;80;20994;-89
2022/09/03 02:35:33;;;;;;;10.82;5.20;;;;;;;6.37;100.00;98309.66;1756619;80;20928;-88
2022/09/03 02:38:13;;;;;;;11.25;5.47;;;;;;;6.40;100.00;98317.23;1756694;81;21579;-82
2022/09/03 02:40:39;;;;;;;10.32;6.17;;;;;;;6.36;100.00;98312.59;1731366;82;21087;-89
2022/09/03 02:43:07;;;;;;;10.43;5.22;;;;;;;6.34;100.00;98316.07;1747867;80;20957;-83
2022/09/03 02:45:35;;;;;;;9.83;5.10;;;;;;;6.31;100.00;98315.20;1750540;81;21608;-82
2022/09/03 02:48:01;;;;;;;13.72;5.85;;;;;;;6.29;100.00;98310.59;1727281;82;20990;-89
2022/09/03 02:50:27;;;;;;;8.20;5.20;;;;;;;6.27;100.00;98316.76;1753957;81;21144;-82
2022/09/03 02:52:53;;;;;;;8.03;5.00;;;;;;;6.23;100.00;98307.81;1761729;80;20944;-89
2022/09/03 02:55:19;;;;;;;10.85;5.70;;;;;;;6.19;100.00;98308.56;1764488;80;21675;-89
2022/09/03 02:57:45;;;;;;;8.75;4.97;;;;;;;6.19;100.00;98311.25;1763820;80;20937;-82
2022/09/03 03:00:12;;;;;;;11.05;5.25;;;;;;;6.12;100.00;98309.24;1756702;80;21012;-89
2022/09/03 03:02:38;;;;;;;8.83;5.47;;;;;;;6.09;100.00;98317.81;1732558;81;21164;-89
2022/09/03 03:05:07;;;;;;;11.50;5.83;;;;;;;6.08;100.00;98321.03;1757466;81;20992;-88
2022/09/03 03:07:36;;;;;;;10.07;6.50;;;;;;;6.04;100.00;98317.18;1725934;81;21012;-88
2022/09/03 03:10:02;;;;;;;11.15;5.92;;;;;;;6.02;100.00;98311.23;1713386;80;21654;-89
2022/09/03 03:12:29;;;;;;;8.05;5.67;;;;;;;6.02;100.00;98315.80;1747505;82;20976;-88
2022/09/03 03:14:55;;;;;;;10.50;4.90;;;;;;;6.03;100.00;98312.86;1762724;79;21029;-82
2022/09/03 03:17:21;;;;;;;10.63;5.45;;;;;;;6.03;100.00;98314.20;1756699;79;20871;-88
2022/09/03 03:19:48;;;;;;;10.72;5.33;;;;;;;6.04;100.00;98316.37;1739025;81;20870;-82
2022/09/03 03:22:14;;;;;;;7.65;4.83;;;;;;;6.09;100.00;98319.16;1709488;82;21062;-82
2022/09/03 03:24:39;;;;;;;8.73;4.40;;;;;;;6.14;100.00;98317.88;1759352;80;20866;-88
2022/09/03 03:27:07;;;;;;;8.30;4.70;;;;;;;6.20;100.00;98315.03;1736148;80;21626;-82
2022/09/03 03:29:32;;;;;;;12.35;6.22;;;;;;;6.31;100.00;98311.16;1756130;81;21109;-89
2022/09/03 03:31:58;;;;;;;13.60;7.00;;;;;;;6.38;100.00;98315.85;1752292;80;20902;-89
2022/09/03 03:34:24;;;;;;;11.75;6.30;;;;;;;6.42;100.00;98319.70;1745700;82;21099;-89
2022/09/03 03:36:50;;;;;;;9.80;6.25;;;;;;;6.44;100.00;98312.19;1748383;80;20898;-82
2022/09/03 03:39:16;;;;;;;9.83;6.05;;;;;;;6.42;100.00;98311.63;1752316;80;20993;-89
2022/09/03 03:41:42;;;;;;;11.97;7.10;;;;;;;6.41;100.00;98308.12;1728423;80;20898;-89
2022/09/03 03:44:08;;;;;;;12.37;6.28;;;;;;;6.46;100.00;98299.29;1757201;81;20921;-83
2022/09/03 03:46:37;;;;;;;9.90;6.25;;;;;;;6.49;100.00;98301.48;1732610;81;20993;-82
2022/09/03 03:49:05;;;;;;;11.93;6.12;;;;;;;6.55;100.00;98295.12;1757457;81;21477;-88
2022/09/03 03:51:31;;;;;;;7.72;5.00;;;;;;;6.58;100.00;98295.98;1730899;82;21251;-88
2022/09/03 03:53:57;;;;;;;8.60;4.90;;;;;;;6.60;100.00;98294.39;1755300;80;21029;-83
2022/09/03 03:56:25;;;;;;;12.85;5.72;;;;;;;6.66;100.00;98297.42;1764800;80;20890;-81
2022/09/03 03:58:51;;;;;;;9.95;5.25;;;;;;;6.74;100.00;98286.22;1760566;80;21056;-82
2022/09/03 04:01:22;;;;;;;14.10;5.55;;;;;;;6.82;100.00;98284.45;1762245;80;21041;-88
2022/09/03 04:03:48;;;;;;;13.65;6.53;;;;;;;6.88;100.00;98290.20;1764169;80;21981;-89
2022/09/03 04:06:17;;;;;;;14.23;6.62;;;;;;;6.95;100.00;98285.98;1770301;80;21028;-89
2022/09/03 04:08:44;;;;;;;10.78;5.58;;;;;;;7.01;100.00;98284.46;1738198;81;21084;-82
2022/09/03 04:11:13;;;;;;;12.35;5.90;;;;;;;7.10;100.00;98288.07;1756743;81;21068;-82
2022/09/03 04:13:42;;;;;;;11.63;6.53;;;;;;;7.19;100.00;98293.30;1756491;81;20989;-82
2022/09/03 04:16:23;;;;;;;10.03;6.83;;;;;;;7.29;100.00;98293.41;1752729;80;21222;-89
2022/09/03 04:18:49;;;;;;;11.33;6.30;;;;;;;7.37;100.00;98297.55;1736388;81;21388;-89
2022/09/03 04:21:26;;;;;;;12.63;6.15;;;;;;;7.41;100.00;98298.66;1732337;80;21022;-89
2022/09/03 04:23:52;;;;;;;10.75;7.58;;;;;;;7.44;100.00;98298.18;1735840;82;21063;-83
2022/09/03 04:26:21;;;;;;;10.18;6.50;;;;;;;7.50;100.00;98300.66;1738992;80;21468;-82
2022/09/03 04:28:47;;;;;;;10.18;5.70;;;;;;;7.52;100.00;98295.84;1746940;81;21161;-90
2022/09/03 04:31:15;;;;;;;9.43;5.87;;;;;;;7.54;100.00;98299.64;1743200;82;21049;-89
2022/09/03 04:33:41;;;;;;;12.00;5.30;;;;;;;7.58;100.00;98298.05;1770903;80;21077;-83
2022/09/03 04:36:19;;;;;;;10.55;7.00;;;;;;;7.62;100.00;98300.00;1763144;79;21057;-82
2022/09/03 04:38:46;;;;;;;9.78;6.50;;;;;;;7.68;100.00;98303.55;1778078;79;21497;-89
2022/09/03 04:41:15;;;;;;;14.65;7.47;;;;;;;7.68;100.00;98308.13;1785634;80;21127;-82
2022/09/03 04:43:42;;;;;;;;;;;;;;;7.69;100.00;98312.45;1787989;80;21060;-88
2022/09/03 04:46:10;;;;;;;8.63;5.17;;;;;;;7.72;100.00;98314.66;1781732;80;20167;-89
2022/09/03 04:48:36;;;;;;;11.38;6.50;;;;;;;7.75;100.00;98311.44;1727674;82;21042;-84
2022/09/03 04:51:08;;;;;;;17.57;5.97;;;;;;;7.81;100.00;98314.48;1760823;80;20917;-83
2022/09/03 04:53:40;;;;;;;11.08;5.97;;;;;;;7.84;100.00;98313.96;1761826;80;21441;-89
2022/09/03 04:56:18;;;;;;;8.23;5.87;;;;;;;7.89;100.00;98304.58;1756711;81;21068;-88
2022/09/03 04:58:44;;;;;;;10.13;6.10;;;;;;;7.96;100.00;98313.28;1732276;82;21026;-83
2022/09/03 05:01:14;;;;;;;10.43;7.28;;;;;;;8.04;100.00;98303.92;1732743;80;21026;-89
2022/09/03 05:03:40;;;;;;;13.68;7.12;;;;;;;8.09;100.00;98310.16;1753835;80;21502;-89
2022/09/03 05:06:07;;;;;;;11.45;7.45;;;;;;;8.19;100.00;98316.17;1761409;80;21948;-88
2022/09/03 05:08:35;;;;;;;12.47;6.85;;;;;;;8.26;100.00;98320.02;1757966;80;21017;-82
2022/09/03 05:11:06;;;;;;;12.78;8.25;;;;;;;8.25;100.00;98317.86;1756563;81;22154;-82
2022/09/03 05:13:33;;;;;;;12.13;6.90;;;;;;;8.26;100.00;98319.48;1755742;81;21060;-89
2022/09/03 05:16:05;;;;;;;12.80;7.50;;;;;;;8.26;100.00;98319.48;1735894;81;21017;-82
2022/09/03 05:18:31;;;;;;;12.30;7.70;;;;;;;8.32;100.00;98316.30;1745942;82;21785;-82
2022/09/03 05:21:08;;;;;;;10.82;7.00;;;;;;;8.33;100.00;98316.58;1730712;81;21494;-82
2022/09/03 05:23:39;;;;;;;13.18;7.05;;;;;;;8.35;100.00;98320.66;1744141;82;21057;-89
2022/09/03 05:26:08;;;;;;;11.12;7.10;;;;;;;8.34;100.00;98318.20;1731069;82;20978;-89
2022/09/03 05:28:35;;;;;;;12.78;7.37;;;;;;;8.44;100.00;98319.66;1756734;81;21044;-88
2022/09/03 05:31:09;;;;;;;10.63;6.75;;;;;;;8.54;100.00;98309.45;1759449;80;21035;-83
2022/09/03 05:33:37;;;;;;;10.75;7.05;;;;;;;8.59;100.00;98318.96;1763860;80;21454;-89
2022/09/03 05:36:14;;;;;;;14.73;9.60;;;;;;;8.64;100.00;98313.06;1781659;79;28191;-85
2022/09/03 05:38:40;;;;;;;13.85;8.13;;;;;;;8.70;100.00;98312.00;1752461;81;21044;-83
2022/09/03 05:41:09;;;;;;;11.00;6.58;;;;;;;8.70;100.00;98309.30;1750989;81;21925;-83
2022/09/03 05:43:35;;;;;;;25.88;8.80;;;;;;;8.80;100.00;98306.39;1751096;81;21008;-83
2022/09/03 05:46:08;;;;;;;13.88;6.20;;;;;;;8.87;100.00;98309.14;1734440;82;21014;-83
2022/09/03 05:48:35;;;;;;;17.20;8.35;;;;;;;8.94;100.00;98307.02;1732028;82;21041;-82
2022/09/03 05:51:10;;;;;;;11.35;6.42;;;;;;;9.00;100.00;98311.39;1723008;82;20971;-83
2022/09/03 05:53:38;;;;;;;9.93;6.35;;;;;;;9.08;100.00;98315.48;1726086;82;21226;-91
2022/09/03 05:56:10;;;;;;;9.30;5.70;;;;;;;9.18;100.00;98311.48;1726066;82;20979;-91
2022/09/03 05:58:40;;;;;;;9.60;6.47;;;;;;;9.35;100.00;98309.12;1681627;83;20906;-82
2022/09/03 06:01:16;;;;;;;11.45;7.03;;;;;;;9.35;100.00;98300.46;1700797;84;21031;-83
2022/09/03 06:03:43;;;;;;;9.95;7.05;;;;;;;9.48;100.00;98293.73;1693371;84;21043;-83
2022/09/03 06:06:09;;;;;;;12.82;7.62;;;;;;;9.56;100.00;98299.44;1683169;84;21075;-90
2022/09/03 06:08:38;;;;;;;8.83;6.10;;;;;;;9.59;100.00;98296.77;1674294;84;21001;-90
2022/09/03 06:11:05;;;;;;;;;;;;;;;9.66;100.00;98295.98;1676505;84;21048;-83
2022/09/03 06:13:32;;;;;;;11.50;6.03;;;;;;;9.75;100.00;98301.67;1680915;84;20185;-90
2022/09/03 06:16:00;;;;;;;15.10;6.97;;;;;;;9.85;100.00;98301.69;1694056;84;21003;-90
2022/09/03 06:18:26;;;;;;;15.90;7.33;;;;;;;9.89;100.00;98306.28;1674520;84;21085;-90
2022/09/03 06:20:56;;;;;;;12.65;8.33;;;;;;;9.94;100.00;98312.27;1677132;84;21053;-90
2022/09/03 06:23:23;;;;;;;12.18;7.67;;;;;;;10.06;100.00;98304.69;1676625;82;21050;-84
2022/09/03 06:26:11;;;;;;;10.28;7.05;;;;;;;10.11;100.00;98295.77;1683888;84;21009;-90
2022/09/03 06:28:42;;;;;;;12.93;7.90;;;;;;;10.21;99.74;98293.61;1659916;85;21031;-88
2022/09/03 06:31:10;;;;;;;12.80;7.05;;;;;;;10.24;99.39;98295.80;1686703;84;21305;-83
2022/09/03 06:33:36;;;;;;;12.40;8.13;;;;;;;10.31;99.41;98293.09;1701569;84;21018;-83
2022/09/03 06:36:05;;;;;;;27.37;11.88;;;;;;;10.38;99.31;98292.83;1688800;84;21052;-83
2022/09/03 06:38:34;;;;;;;25.77;9.23;;;;;;;10.47;98.62;98291.19;1679792;85;21020;-90
2022/09/03 06:41:03;;;;;;;17.75;8.53;;;;;;;10.58;98.31;98296.86;1658620;85;21030;-84
2022/09/03 06:43:31;;;;;;;16.00;9.25;;;;;;;10.64;98.39;98305.81;1665068;85;21130;-84
2022/09/03 06:46:02;;;;;;;18.07;10.28;;;;;;;10.76;98.18;98303.61;1723961;82;21077;-91
2022/09/03 06:48:30;;;;;;;22.85;10.28;;;;;;;10.83;98.22;98297.37;1713497;82;21646;-83
2022/09/03 06:51:07;;;;;;;14.55;9.18;;;;;;;10.96;97.64;98298.70;1725596;82;21027;-83
2022/09/03 06:53:38;;;;;;;12.65;7.42;;;;;;;11.02;97.98;98300.30;1737378;82;21095;-90
2022/09/03 06:56:07;;;;;;;9.93;6.40;;;;;;;11.19;97.75;98304.05;1728860;82;21067;-83
2022/09/03 06:58:39;;;;;;;10.60;6.65;;;;;;;11.32;97.55;98316.22;1714215;82;21072;-83
2022/09/03 07:01:16;;;;;;;10.53;6.97;;;;;;;11.39;97.24;98318.09;1688026;84;20982;-83
2022/09/03 07:03:43;;;;;;;12.65;6.75;;;;;;;11.39;96.87;98322.17;1711475;82;21024;-83
2022/09/03 07:06:15;;;;;;;13.25;8.25;;;;;;;11.49;96.81;98318.86;1700928;82;21012;-83
2022/09/03 07:08:41;;;;;;;14.55;7.78;;;;;;;11.51;96.47;98328.08;1726003;82;21011;-83
2022/09/03 07:11:11;;;;;;;14.33;7.85;;;;;;;11.53;96.88;98328.59;1725333;82;21523;-89
2022/09/03 07:13:44;;;;;;;11.60;7.47;;;;;;;11.63;96.85;98331.30;1719153;82;21021;-83
2022/09/03 07:16:13;;;;;;;13.65;7.60;;;;;;;11.70;95.87;98336.39;1722704;82;21011;-83
2022/09/03 07:18:39;;;;;;;14.38;6.78;;;;;;;11.66;96.24;98332.08;1737009;82;20997;-91
2022/09/03 07:21:08;;;;;;;11.73;7.03;;;;;;;11.72;96.55;98322.83;1699216;82;21553;-90
2022/09/03 07:23:34;;;;;;;10.55;6.60;;;;;;;11.84;96.69;98315.17;1734122;82;21053;-90
2022/09/03 07:26:04;;;;;;;11.38;7.22;;;;;;;12.01;96.28;98319.42;1675721;84;21076;-83
2022/09/03 07:28:34;;;;;;;13.40;7.75;;;;;;;12.07;96.33;98317.77;1662772;85;21635;-83
2022/09/03 07:31:10;;;;;;;14.43;7.47;;;;;;;12.22;96.48;98320.92;1677969;84;20991;-91
2022/09/03 07:33:37;;;;;;;19.73;10.05;;;;;;;12.28;95.86;98315.70;1653853;85;21334;-83
2022/09/03 07:36:07;;;;;;;14.28;8.48;;;;;;;12.29;95.67;98311.88;1711924;82;21076;-83
2022/09/03 07:38:34;;;;;;;10.70;7.50;;;;;;;12.32;95.19;98321.39;1707695;82;21000;-91
2022/09/03 07:41:01;;;;;;;12.03;7.17;;;;;;;12.33;95.61;98318.39;1672022;84;21084;-83
2022/09/03 07:43:28;;;;;;;12.95;7.12;;;;;;;12.40;95.56;98325.67;1705405;83;21119;-90
2022/09/03 07:45:55;;;;;;;11.20;7.00;;;;;;;12.51;95.38;98323.67;1714267;82;21684;-91
2022/09/03 07:48:22;;;;;;;11.85;7.33;;;;;;;12.57;95.08;98324.45;1687282;82;21006;-91
2022/09/03 07:50:48;;;;;;;15.40;7.42;;;;;;;12.55;95.07;98326.08;1716872;82;21465;-91
2022/09/03 07:53:19;;;;;;;13.13;7.53;;;;;;;12.63;95.21;98326.82;1723538;82;20866;-89
2022/09/03 07:55:46;;;;;;;11.53;7.15;;;;;;;12.72;95.20;98327.02;1704723;82;21076;-89
2022/09/03 07:58:13;;;;;;;9.23;6.28;;;;;;;12.84;94.58;98326.66;1699785;82;21182;-83
2022/09/03 08:00:39;;;;;;;14.58;6.75;;;;;;;12.81;94.47;98326.66;1717663;82;21452;-90
2022/09/03 08:03:07;;;;;;;12.05;7.90;;;;;;;12.89;94.36;98328.76;1725679;82;20984;-83
2022/09/03 08:05:39;;;;;;;10.48;7.25;;;;;;;12.92;94.42;98323.31;1732941;82;21536;-91
2022/09/03 08:08:04;;;;;;;9.83;6.28;;;;;;;13.04;94.50;98329.71;1714929;82;21039;-84
2022/09/03 08:10:32;;;;;;;11.80;7.20;;;;;;;13.15;94.36;98327.94;1670371;84;21047;-90
2022/09/03 08:12:58;;;;;;;19.25;8.88;;;;;;;13.31;94.33;98325.09;1661240;85;22098;-83
2022/09/03 08:15:25;;;;;;;19.70;9.68;;;;;;;13.52;93.82;98333.29;1654530;85;21014;-91
2022/09/03 08:17:51;;;;;;;13.60;8.43;;;;;;;13.71;93.30;98331.41;1673306;85;21045;-84
2022/09/03 08:20:18;;;;;;;13.15;7.55;;;;;;;13.97;93.86;98328.33;1709872;82;21074;-89
2022/09/03 08:22:44;;;;;;;10.20;7.03;;;;;;;14.21;93.62;98336.44;1735407;82;21281;-91
2022/09/03 08:25:10;;;;;;;16.93;7.83;;;;;;;14.41;92.77;98336.12;1737225;82;20882;-92
2022/09/03 08:27:36;;;;;;;9.78;6.35;;;;;;;14.61;92.94;98333.63;1719566;82;20903;-84
2022/09/03 08:30:03;;;;;;;13.58;7.50;;;;;;;14.80;92.77;98324.87;1715608;82;22220;-91
2022/09/03 08:32:29;;;;;;;15.13;7.67;;;;;;;14.98;92.58;98331.93;1736757;82;20997;-84
2022/09/03 08:34:55;;;;;;;14.95;7.67;;;;;;;15.00;91.09;98329.70;1716863;82;21954;-91
2022/09/03 08:37:27;;;;;;;11.35;6.83;;;;;;;15.06;91.57;98336.14;1733709;82;20969;-83
2022/09/03 08:39:49;;;;;;;13.08;6.58;;;;;;;15.05;89.88;98331.80;1734611;82;21021;-83
2022/09/03 08:42:29;;;;;;;9.83;5.50;;;;;;;15.06;90.12;98329.88;1708477;82;21104;-84
2022/09/03 08:45:01;;;;;;;13.03;5.58;;;;;;;15.15;90.48;98331.59;1699467;82;21030;-84
2022/09/03 08:47:32;;;;;;;9.75;5.17;;;;;;;15.22;89.81;98332.02;1728303;82;21673;-84
2022/09/03 08:50:40;;;;;;;8.50;5.62;;;;;;;15.30;89.70;98334.60;1714079;82;21072;-84
2022/09/03 08:53:17;;;;;;;9.28;4.53;;;;;;;15.39;89.87;98319.69;1686111;83;21508;-91
2022/09/03 08:56:15;;;;;;;7.87;4.50;;;;;;;15.36;86.51;98318.35;1713515;82;21008;-90
2022/09/03 08:58:44;;;;;;;8.88;4.60;;;;;;;15.43;87.62;98320.12;1718173;82;21417;-92
2022/09/03 09:01:44;;;;;;;6.62;4.05;;;;;;;15.69;88.30;98327.83;1695241;84;21161;-91
2022/09/03 09:04:34;;;;;;;11.80;5.10;;;;;;;16.12;86.27;98329.61;1724174;82;21085;-84
2022/09/03 09:07:19;;;;;;;7.28;4.78;;;;;;;16.82;85.19;98336.44;1707738;82;21005;-84
2022/09/03 09:10:02;;;;;;;6.42;4.50;;;;;;;17.28;85.16;98331.14;1681837;84;21025;-92
2022/09/03 09:12:48;;;;;;;7.00;5.15;;;;;;;17.52;85.36;98330.72;1717651;82;21024;-84
2022/09/03 09:15:44;;;;;;;6.42;4.33;;;;;;;18.30;83.56;98324.30;1720683;80;21438;-84
2022/09/03 09:19:02;;;;;;;6.72;3.85;;;;;;;18.74;74.36;98322.35;1732107;82;21067;-91
2022/09/03 09:21:32;;;;;;;7.30;3.75;;;;;;;18.50;77.47;98320.66;1733050;82;21433;-91
2022/09/03 09:24:03;;;;;;;6.53;3.55;;;;;;;18.37;78.73;98320.24;1705584;83;21099;-84
2022/09/03 09:26:29;;;;;;;5.45;3.37;;;;;;;18.12;74.52;98325.42;1711140;82;21456;-84
2022/09/03 09:29:01;;;;;;;8.43;3.45;;;;;;;18.29;77.11;98321.88;1718281;82;21041;-84
2022/09/03 09:31:29;;;;;;;8.75;3.75;;;;;;;18.57;75.21;98314.11;1723367;82;21056;-84
2022/09/03 09:33:57;;;;;;;5.92;3.55;;;;;;;18.26;73.98;98306.05;1725420;82;22107;-84
2022/09/03 09:36:23;;;;;;;7.07;2.93;;;;;;;18.40;75.52;98310.02;1710989;81;21048;-84
2022/09/03 09:38:49;;;;;;;6.10;3.25;;;;;;;18.77;73.00;98304.41;1687200;83;20972;-92
2022/09/03 09:41:22;;;;;;;5.65;2.83;;;;;;;18.87;70.28;98303.49;1716018;81;21069;-84
2022/09/03 09:43:50;;;;;;;5.08;3.50;;;;;;;18.58;71.25;98306.12;1732074;82;21004;-91
2022/09/03 09:46:20;;;;;;;7.50;3.72;;;;;;;18.37;72.92;98308.70;1723173;82;21007;-84
2022/09/03 09:48:56;;;;;;;5.58;3.62;;;;;;;18.44;73.99;98298.63;1717382;82;21066;-84
2022/09/03 09:51:29;;;;;;;7.75;4.00;;;;;;;18.57;73.51;98305.31;1707698;82;21008;-92
2022/09/03 09:54:03;;;;;;;6.47;3.90;;;;;;;18.70;73.87;98313.70;1690513;82;21425;-91
2022/09/03 09:56:29;;;;;;;4.33;2.92;;;;;;;18.86;74.37;98316.18;1692007;84;21065;-90
2022/09/03 09:59:06;;;;;;;4.17;3.02;;;;;;;18.98;73.38;98321.81;1737207;82;21017;-92
2022/09/03 10:01:33;;;;;;;4.70;3.33;;;;;;;19.06;72.13;98319.62;1713935;82;21093;-84
2022/09/03 10:04:02;;;;;;;5.83;3.27;;;;;;;18.84;69.78;98328.06;1722031;82;21081;-85
2022/09/03 10:09:16;;;;;;;4.65;3.30;;;;;;;19.04;68.61;98321.86;1698916;82;20996;-84
2022/09/03 10:11:46;;;;;;;6.10;3.25;;;;;;;18.85;69.11;98326.36;1697105;84;21037;-84
2022/09/03 10:14:26;;;;;;;4.15;3.22;;;;;;;18.64;69.59;98321.86;1696642;83;21029;-91
2022/09/03 10:17:00;;;;;;;4.47;2.47;;;;;;;18.91;70.11;98317.96;1721102;82;21068;-92
2022/09/03 10:19:33;;;;;;;5.03;2.92;;;;;;;19.16;68.68;98312.95;1697184;82;21496;-91
2022/09/03 10:22:16;;;;;;;5.40;3.12;;;;;;;19.21;68.46;98310.58;1712478;82;21431;-92
2022/09/03 10:24:58;;;;;;;6.58;2.80;;;;;;;19.31;68.83;98301.97;1731607;82;20985;-91
2022/09/03 10:27:24;;;;;;;4.92;3.50;;;;;;;18.87;67.50;98311.73;1722077;82;20998;-84
2022/09/03 10:29:50;;;;;;;5.80;3.22;;;;;;;18.87;68.78;98301.31;1706001;82;21051;-84
2022/09/03 10:32:34;;;;;;;5.00;2.92;;;;;;;19.06;69.34;98301.77;1680541;83;21119;-84
2022/09/03 10:35:18;;;;;;;4.45;2.52;;;;;;;19.08;69.39;98298.12;1715428;82;21025;-84
2022/09/03 10:37:55;;;;;;;3.95;2.60;;;;;;;18.90;69.24;98304.00;1731087;82;21028;-92
2022/09/03 10:41:04;;;;;;;4.42;2.98;;;;;;;18.60;68.58;98299.16;1722126;82;21532;-91
2022/09/03 10:43:57;;;;;;;6.65;3.00;;;;;;;18.51;69.79;98301.69;1737065;82;21580;-84
2022/09/03 10:46:28;;;;;;;5.20;3.52;;;;;;;18.81;69.34;98303.45;1728106;82;21115;-83
2022/09/03 10:49:06;;;;;;;5.25;3.70;;;;;;;18.79;69.89;98297.45;1703016;82;21013;-84
2022/09/03 10:51:41;;;;;;;4.00;3.40;;;;;;;18.83;70.04;98298.43;1677826;84;21032;-84
2022/09/03 10:54:33;;;;;;;3.10;2.37;;;;;;;18.79;68.97;98289.22;1699537;82;21036;-91
2022/09/03 10:57:31;;;;;;;8.13;2.60;;;;;;;18.80;69.73;98279.05;1685193;84;21014;-92
2022/09/03 11:00:13;;;;;;;3.70;2.70;;;;;;;18.72;69.61;98290.88;1736447;82;21114;-85
2022/09/03 11:03:23;;;;;;;4.60;3.02;;;;;;;18.72;69.90;98286.77;1710125;82;21032;-84
2022/09/03 11:05:57;;;;;;;5.70;2.58;;;;;;;18.94;69.57;98282.97;1707971;82;20998;-84
2022/09/03 11:08:34;;;;;;;4.75;3.05;;;;;;;18.74;69.79;98274.89;1712227;82;21455;-85
2022/09/03 11:11:14;;;;;;;6.28;3.12;;;;;;;18.86;70.37;98275.80;1712501;82;20999;-85
2022/09/03 11:13:52;;;;;;;6.42;3.12;;;;;;;18.89;70.06;98278.48;1712661;82;21235;-84
2022/09/03 11:16:33;;;;;;;6.78;3.10;;;;;;;18.59;68.79;98281.66;1746070;80;20996;-85
2022/09/03 11:19:06;;;;;;;4.75;2.27;;;;;;;18.63;69.75;98283.17;1736960;82;21072;-85
2022/09/03 11:21:32;;;;;;;3.47;2.58;;;;;;;18.84;69.77;98275.91;1725434;82;21080;-84
2022/09/03 11:24:22;;;;;;;5.72;3.02;;;;;;;18.71;70.00;98264.54;1699621;82;21020;-92
2022/09/03 11:26:53;;;;;;;4.50;2.87;;;;;;;18.66;68.26;98261.98;1680574;82;21029;-85
2022/09/03 11:29:36;;;;;;;5.83;2.90;;;;;;;18.52;69.84;98273.11;1710676;83;21062;-90
2022/09/03 11:32:22;;;;;;;4.67;3.05;;;;;;;18.66;70.09;98267.48;1711448;82;21007;-91
2022/09/03 11:34:51;;;;;;;4.53;3.00;;;;;;;18.85;69.67;98258.30;1721847;82;21095;-91
2022/09/03 11:37:27;;;;;;;4.90;2.72;;;;;;;18.85;69.96;98254.17;1665597;84;21012;-91
2022/09/03 11:40:12;;;;;;;4.72;2.95;;;;;;;18.80;69.77;98248.85;1679700;85;21077;-91
2022/09/03 11:42:41;;;;;;;4.35;2.35;;;;;;;18.71;69.14;98248.07;1706703;82;21111;-91
2022/09/03 11:45:28;;;;;;;4.65;2.58;;;;;;;18.74;68.86;98246.06;1737255;82;21008;-85
2022/09/03 11:47:55;;;;;;;5.72;2.62;;;;;;;18.92;68.64;98246.81;1717004;82;21068;-85
2022/09/03 11:50:29;;;;;;;4.47;2.75;;;;;;;19.05;68.39;98243.83;1693447;83;21028;-84
2022/09/03 11:53:16;;;;;;;4.20;2.98;;;;;;;19.18;68.04;98248.87;1731997;82;22027;-92
2022/09/03 11:55:54;;;;;;;4.03;3.20;;;;;;;19.09;67.94;98246.74;1733771;82;21036;-92
2022/09/03 11:58:39;;;;;;;4.25;3.12;;;;;;;19.28;68.32;98244.38;1707202;82;21007;-92
2022/09/03 12:01:11;;;;;;;5.90;3.45;;;;;;;19.17;67.49;98247.27;1709695;82;21080;-85
2022/09/03 12:04:02;;;;;;;5.53;2.92;;;;;;;19.15;67.07;98242.69;1719075;82;21067;-92